Time;durP1;ratioP1;P1;durP2;ratioP2;P2;SDS_P1;SDS_P2;PMS_P1;PMS_P2;Temp;Humidity;BMP_temperature;BMP_pressure;BME280_temperature;BME280_humidity;BME280_pressure;Samples;Min_cycle;Max_cycle;Signal;HPM_P1;HPM_P2
2023/06/14 00:01:59;;;;;;;10.97;7.37;;;13.10;99.90;;;;;;5094818;28;20187;-77
2023/06/14 00:04:26;;;;;;;12.07;7.73;;;13.10;99.90;;;;;;5094260;28;20602;-76
2023/06/14 00:06:56;;;;;;;12.43;7.90;;;13.20;99.90;;;;;;5076170;28;20296;-77
2023/06/14 00:09:23;;;;;;;13.93;8.07;;;13.10;99.90;;;;;;5092834;28;20715;-77
2023/06/14 00:11:50;;;;;;;12.00;7.43;;;13.10;99.90;;;;;;5094329;28;20703;-77
2023/06/14 00:14:17;;;;;;;12.70;8.37;;;13.10;99.90;;;;;;5092826;28;20214;-77
2023/06/14 00:16:44;;;;;;;12.40;8.50;;;13.10;99.90;;;;;;5093013;28;20224;-77
2023/06/14 00:19:11;;;;;;;14.13;9.87;;;13.10;99.90;;;;;;5076451;28;20186;-77
2023/06/14 00:21:38;;;;;;;17.90;10.07;;;12.90;99.90;;;;;;5075805;28;20316;-77
2023/06/14 00:24:05;;;;;;;18.20;10.50;;;12.90;99.90;;;;;;5092563;28;20201;-77
2023/06/14 00:26:33;;;;;;;15.13;10.60;;;13.00;99.90;;;;;;5014374;28;20324;-77
2023/06/14 00:29:00;;;;;;;19.90;11.70;;;13.00;99.90;;;;;;5014886;28;20491;-77
2023/06/14 00:31:27;;;;;;;23.03;14.97;;;13.00;99.90;;;;;;5031221;28;20216;-77
2023/06/14 00:33:54;;;;;;;23.47;16.57;;;13.00;99.90;;;;;;5014625;28;20203;-77
2023/06/14 00:36:21;;;;;;;26.33;18.33;;;12.90;99.90;;;;;;5014587;28;20226;-77
2023/06/14 00:38:48;;;;;;;26.57;17.67;;;12.90;99.90;;;;;;5014451;28;20235;-77
2023/06/14 00:41:15;;;;;;;28.43;18.80;;;12.90;99.90;;;;;;5014528;28;20220;-77
2023/06/14 00:43:42;;;;;;;25.73;18.13;;;12.90;99.90;;;;;;5036585;28;20289;-77
2023/06/14 00:46:09;;;;;;;32.67;19.90;;;12.80;99.90;;;;;;5092437;28;20646;-77
2023/06/14 00:48:38;;;;;;;30.00;19.53;;;12.80;99.90;;;;;;5092062;28;20205;-77
2023/06/14 00:51:06;;;;;;;30.90;19.97;;;12.90;99.90;;;;;;5092246;28;20209;-77
2023/06/14 00:53:39;;;;;;;29.87;19.93;;;12.90;99.90;;;;;;5075513;28;20197;-77
2023/06/14 00:56:06;;;;;;;31.10;20.07;;;12.90;99.90;;;;;;5092080;28;20218;-76
2023/06/14 00:58:33;;;;;;;29.67;18.90;;;12.90;99.90;;;;;;4997646;28;20228;-76
2023/06/14 01:01:02;;;;;;;27.50;18.63;;;12.90;99.90;;;;;;5014313;28;20238;-77
2023/06/14 01:03:31;;;;;;;24.93;16.53;;;12.90;99.90;;;;;;4997927;28;20659;-76
2023/06/14 01:06:10;;;;;;;24.17;16.23;;;12.90;99.90;;;;;;5014046;28;20710;-77
2023/06/14 01:08:46;;;;;;;22.77;15.77;;;12.90;99.90;;;;;;5014066;28;20211;-78
2023/06/14 01:11:21;;;;;;;22.57;15.60;;;13.00;99.90;;;;;;5030577;28;20221;-77
2023/06/14 01:13:48;;;;;;;22.73;15.00;;;13.00;99.90;;;;;;4997599;28;20397;-77
2023/06/14 01:16:16;;;;;;;24.33;14.90;;;13.00;99.90;;;;;;5049670;28;20234;-78
2023/06/14 01:18:48;;;;;;;21.87;13.90;;;13.00;99.90;;;;;;5092996;28;20272;-79
2023/06/14 01:21:25;;;;;;;19.73;12.80;;;13.00;99.90;;;;;;5091665;28;20213;-78
2023/06/14 01:23:54;;;;;;;19.03;12.90;;;13.00;99.90;;;;;;5074837;28;20241;-77
2023/06/14 01:26:28;;;;;;;20.47;13.20;;;13.00;99.90;;;;;;5074708;28;20316;-76
2023/06/14 01:28:58;;;;;;;20.90;12.50;;;13.00;99.90;;;;;;5091321;28;20254;-79
2023/06/14 01:31:27;;;;;;;18.30;12.73;;;13.00;99.90;;;;;;5074403;28;20693;-78
2023/06/14 01:33:55;;;;;;;16.73;11.93;;;13.10;99.90;;;;;;5074531;28;20197;-77
2023/06/14 01:36:26;;;;;;;17.53;12.20;;;13.20;99.90;;;;;;5091487;28;20707;-77
2023/06/14 01:38:56;;;;;;;16.70;11.47;;;13.10;99.90;;;;;;5091345;28;20267;-77
2023/06/14 01:41:24;;;;;;;17.23;11.37;;;13.10;99.90;;;;;;5091139;28;20688;-77
2023/06/14 01:43:52;;;;;;;15.47;11.40;;;13.10;99.90;;;;;;5074490;28;20376;-77
2023/06/14 01:46:22;;;;;;;14.53;10.17;;;13.10;99.90;;;;;;5091303;28;20207;-79
2023/06/14 01:48:49;;;;;;;14.03;9.90;;;13.00;99.90;;;;;;5074281;28;20229;-78
2023/06/14 01:51:16;;;;;;;13.13;9.73;;;13.10;99.90;;;;;;5091233;28;20282;-78
2023/06/14 01:53:43;;;;;;;13.97;9.63;;;13.00;99.90;;;;;;5091024;28;20684;-78
2023/06/14 01:56:10;;;;;;;15.80;9.90;;;13.10;99.90;;;;;;5074240;28;20227;-77
2023/06/14 01:58:39;;;;;;;14.13;9.67;;;13.10;99.90;;;;;;5091012;28;20222;-77
2023/06/14 02:01:06;;;;;;;14.33;9.87;;;13.10;99.90;;;;;;5092278;28;20228;-78
2023/06/14 02:03:34;;;;;;;14.83;9.73;;;13.20;99.90;;;;;;4977147;28;20691;-78
2023/06/14 02:06:01;;;;;;;16.23;9.87;;;13.10;99.90;;;;;;4993327;28;20212;-77
2023/06/14 02:08:28;;;;;;;14.83;9.70;;;13.10;99.90;;;;;;4993624;28;20206;-74
2023/06/14 02:10:56;;;;;;;14.60;9.20;;;13.10;99.90;;;;;;4993836;28;20224;-76
2023/06/14 02:13:23;;;;;;;12.50;9.30;;;13.10;99.90;;;;;;4977496;28;20196;-75
2023/06/14 02:15:52;;;;;;;16.60;9.97;;;13.10;99.90;;;;;;5009874;28;20311;-75
2023/06/14 02:18:22;;;;;;;13.70;9.57;;;13.10;99.90;;;;;;4993429;28;20344;-75
2023/06/14 02:20:49;;;;;;;14.67;9.70;;;13.10;99.90;;;;;;5004454;28;20251;-76
2023/06/14 02:23:16;;;;;;;13.27;8.97;;;13.10;99.90;;;;;;5091018;28;20305;-77
2023/06/14 02:25:44;;;;;;;17.27;9.73;;;13.00;99.90;;;;;;5090810;28;20217;-77
2023/06/14 02:28:12;;;;;;;15.07;9.10;;;13.10;99.90;;;;;;5074099;28;20197;-77
2023/06/14 02:30:40;;;;;;;12.00;8.83;;;13.00;99.90;;;;;;5090792;28;20257;-77
2023/06/14 02:33:12;;;;;;;14.33;9.30;;;13.00;99.90;;;;;;5074149;28;20641;-77
2023/06/14 02:35:39;;;;;;;12.90;8.87;;;13.10;99.90;;;;;;5090759;28;20227;-78
2023/06/14 02:38:11;;;;;;;11.90;8.50;;;13.10;99.90;;;;;;5074540;28;20196;-78
2023/06/14 02:40:42;;;;;;;12.10;8.80;;;13.10;99.90;;;;;;5074361;28;20268;-78
2023/06/14 02:43:10;;;;;;;12.07;8.93;;;13.10;99.90;;;;;;5090976;28;20302;-78
2023/06/14 02:45:37;;;;;;;13.10;9.40;;;13.10;99.90;;;;;;5074028;28;20275;-77
2023/06/14 02:48:05;;;;;;;12.03;9.23;;;13.10;99.90;;;;;;5074242;28;20197;-77
2023/06/14 02:50:32;;;;;;;13.73;8.73;;;13.20;99.90;;;;;;5090385;28;20763;-77
2023/06/14 02:52:59;;;;;;;13.97;8.83;;;13.10;99.90;;;;;;5090828;28;20290;-77
2023/06/14 02:55:26;;;;;;;12.73;8.80;;;13.10;99.90;;;;;;5090404;28;20229;-77
2023/06/14 02:57:53;;;;;;;13.73;8.97;;;13.10;99.90;;;;;;5090365;28;20225;-76
2023/06/14 06:10:19;;;;;;;11.97;8.03;;;14.80;99.90;;;;;;5078509;28;20309;-82
2023/06/14 06:12:47;;;;;;;15.10;8.63;;;15.00;99.90;;;;;;5072316;28;20273;-84
2023/06/14 06:15:14;;;;;;;12.37;8.13;;;15.10;99.90;;;;;;5037655;28;20220;-82
2023/06/14 06:17:41;;;;;;;19.53;8.23;;;15.20;99.90;;;;;;5054517;28;20703;-84
2023/06/14 06:20:27;;;;;;;12.03;8.17;;;15.40;99.90;;;;;;5039916;28;20214;-85
2023/06/14 06:22:56;;;;;;;11.27;7.93;;;15.50;99.90;;;;;;5072487;28;20178;-84
2023/06/14 06:25:25;;;;;;;11.23;7.60;;;15.60;99.90;;;;;;5053915;28;20217;-86
2023/06/14 06:27:53;;;;;;;14.73;7.90;;;15.60;99.90;;;;;;5054320;28;20679;-85
2023/06/14 06:30:20;;;;;;;11.57;7.37;;;15.70;99.90;;;;;;5072842;28;20602;-84
2023/06/14 06:32:47;;;;;;;11.33;7.57;;;15.80;99.90;;;;;;5072414;28;20281;-83
2023/06/14 06:35:15;;;;;;;9.63;7.10;;;15.80;99.90;;;;;;5054139;28;20214;-81
2023/06/14 06:37:42;;;;;;;9.90;7.40;;;15.90;99.90;;;;;;5054124;28;20248;-82
2023/06/14 06:40:10;;;;;;;9.23;6.80;;;16.00;99.90;;;;;;5037282;28;20214;-82
2023/06/14 06:42:37;;;;;;;10.73;6.87;;;16.10;99.90;;;;;;5037364;28;20323;-81
2023/06/14 06:45:05;;;;;;;11.23;7.17;;;16.10;99.90;;;;;;5053841;28;20574;-82
2023/06/14 06:47:32;;;;;;;9.77;7.37;;;16.20;99.90;;;;;;5053431;28;20668;-82
2023/06/14 06:49:59;;;;;;;8.80;6.70;;;16.30;99.90;;;;;;5053632;28;20217;-82
2023/06/14 06:52:26;;;;;;;11.43;7.20;;;16.30;99.90;;;;;;5037430;28;20194;-82
2023/06/14 06:54:54;;;;;;;11.27;6.70;;;16.40;99.90;;;;;;5075592;28;20233;-83
2023/06/14 06:57:25;;;;;;;8.60;6.40;;;16.60;99.90;;;;;;5040531;28;20194;-83
2023/06/14 06:59:52;;;;;;;10.33;6.00;;;16.80;99.90;;;;;;5057522;28;20317;-82
2023/06/14 07:02:19;;;;;;;9.77;6.40;;;16.90;99.90;;;;;;5056990;28;20653;-82
2023/06/14 07:04:46;;;;;;;10.60;6.27;;;17.00;99.90;;;;;;5040272;28;20222;-82
2023/06/14 07:07:13;;;;;;;12.47;6.40;;;17.10;99.90;;;;;;5040377;28;20570;-82
2023/06/14 07:09:42;;;;;;;10.50;6.70;;;17.00;99.90;;;;;;5066731;28;20248;-82
2023/06/14 07:12:10;;;;;;;11.53;6.33;;;17.00;99.90;;;;;;5093673;28;20202;-81
2023/06/14 07:14:37;;;;;;;11.10;6.23;;;17.10;99.90;;;;;;5093617;28;20767;-82
2023/06/14 07:17:04;;;;;;;9.33;6.30;;;17.30;99.90;;;;;;5093450;28;20221;-82
2023/06/14 07:19:31;;;;;;;9.57;5.60;;;17.30;99.90;;;;;;5076772;28;20227;-82
2023/06/14 07:21:58;;;;;;;10.57;6.00;;;17.30;99.90;;;;;;5076431;28;20193;-81
2023/06/14 07:24:25;;;;;;;8.23;5.47;;;17.40;99.90;;;;;;5094493;28;20220;-81
2023/06/14 07:26:53;;;;;;;10.13;5.90;;;17.50;99.90;;;;;;5094050;28;20268;-83
2023/06/14 07:29:21;;;;;;;9.87;5.67;;;17.40;99.90;;;;;;5093737;28;20194;-82
2023/06/14 07:31:48;;;;;;;8.77;6.20;;;17.50;99.90;;;;;;5093509;28;20279;-83
2023/06/14 07:34:15;;;;;;;8.57;5.30;;;17.40;99.90;;;;;;5093561;28;20660;-83
2023/06/14 07:36:44;;;;;;;9.43;5.50;;;17.40;99.90;;;;;;5093339;28;20221;-83
2023/06/14 07:39:11;;;;;;;7.67;5.33;;;17.40;99.90;;;;;;5093279;28;20193;-83
2023/06/14 07:41:38;;;;;;;9.20;5.30;;;17.40;99.90;;;;;;5093181;28;20711;-82
2023/06/14 07:44:05;;;;;;;8.03;5.43;;;17.60;99.90;;;;;;5093057;28;20201;-82
2023/06/14 07:46:32;;;;;;;8.90;5.70;;;17.60;99.90;;;;;;5095113;28;20290;-82
2023/06/14 07:48:59;;;;;;;8.43;5.03;;;17.70;99.90;;;;;;5095142;28;20227;-82
2023/06/14 07:51:26;;;;;;;7.47;5.10;;;17.60;99.90;;;;;;5093267;28;20296;-82
2023/06/14 07:53:53;;;;;;;7.13;4.80;;;17.60;99.90;;;;;;5076684;28;20247;-82
2023/06/14 07:56:20;;;;;;;6.93;5.17;;;17.70;99.90;;;;;;5076678;28;20251;-82
2023/06/14 07:58:47;;;;;;;9.10;5.27;;;17.80;99.90;;;;;;5093615;28;20198;-83
2023/06/14 08:01:15;;;;;;;7.93;5.53;;;17.80;99.90;;;;;;5093554;28;20290;-83
2023/06/14 08:03:41;;;;;;;9.00;5.53;;;17.80;99.90;;;;;;5094866;28;20254;-81
2023/06/14 08:06:09;;;;;;;10.23;4.93;;;17.90;99.90;;;;;;5092727;28;20244;-85
2023/06/14 08:08:36;;;;;;;7.57;5.23;;;17.90;99.90;;;;;;5094767;28;20213;-85
2023/06/14 08:11:03;;;;;;;8.67;5.10;;;18.00;99.90;;;;;;5076259;28;20286;-83
2023/06/14 08:13:30;;;;;;;7.93;4.97;;;18.00;99.90;;;;;;5093392;28;20229;-83
2023/06/14 08:15:58;;;;;;;6.90;5.27;;;18.20;99.90;;;;;;5076368;28;20308;-83
2023/06/14 08:18:25;;;;;;;8.30;5.50;;;18.20;99.90;;;;;;5093130;28;20229;-82
2023/06/14 08:20:52;;;;;;;8.53;5.20;;;18.30;99.90;;;;;;5094640;28;20677;-82
2023/06/14 08:23:20;;;;;;;6.83;5.00;;;18.30;99.90;;;;;;5093338;28;20269;-82
2023/06/14 08:25:47;;;;;;;7.93;5.47;;;18.30;99.90;;;;;;5093580;28;20308;-82
2023/06/14 08:28:14;;;;;;;9.83;5.40;;;18.60;99.90;;;;;;5076208;28;20197;-83
2023/06/14 08:30:42;;;;;;;11.57;5.67;;;18.80;99.90;;;;;;5076013;28;20249;-83
2023/06/14 08:33:09;;;;;;;9.53;5.90;;;18.90;99.90;;;;;;5093265;28;20242;-83
2023/06/14 08:35:43;;;;;;;8.67;5.40;;;19.20;99.90;;;;;;5093144;28;20205;-84
2023/06/14 08:38:11;;;;;;;8.87;5.27;;;19.60;99.90;;;;;;5094186;28;20194;-82
2023/06/14 08:40:41;;;;;;;7.30;5.00;;;19.90;99.90;;;;;;5092664;28;20224;-83
2023/06/14 08:43:08;;;;;;;8.70;5.20;;;20.10;99.90;;;;;;5076366;28;20292;-84
2023/06/14 08:45:35;;;;;;;8.83;5.27;;;20.20;99.90;;;;;;5093017;28;20221;-83
2023/06/14 08:48:03;;;;;;;8.17;4.80;;;20.40;99.90;;;;;;5095535;28;20190;-82
2023/06/14 08:50:32;;;;;;;7.80;4.47;;;20.40;99.90;;;;;;5095222;28;20237;-82
2023/06/14 08:53:02;;;;;;;6.47;4.70;;;20.40;99.90;;;;;;5096989;28;20273;-83
2023/06/14 08:55:32;;;;;;;7.90;4.70;;;20.70;99.90;;;;;;5079957;28;20229;-82
2023/06/14 08:58:04;;;;;;;5.93;4.77;;;21.10;99.90;;;;;;5095003;28;20177;-82
2023/06/14 09:00:32;;;;;;;8.43;5.67;;;21.40;99.90;;;;;;5092955;28;20221;-83
2023/06/14 09:03:00;;;;;;;11.53;5.70;;;21.50;99.90;;;;;;5092602;28;20593;-82
2023/06/14 09:05:28;;;;;;;10.57;5.70;;;21.40;99.90;;;;;;5092244;28;20629;-83
2023/06/14 09:08:00;;;;;;;8.43;5.50;;;21.40;99.90;;;;;;5093905;28;20269;-83
2023/06/14 09:10:36;;;;;;;9.63;5.90;;;21.60;99.90;;;;;;5091914;28;20688;-83
2023/06/14 09:13:05;;;;;;;11.23;6.03;;;21.70;99.90;;;;;;5093748;28;20237;-82
2023/06/14 09:15:32;;;;;;;12.17;6.07;;;21.80;99.90;;;;;;5075154;28;20317;-83
2023/06/14 09:18:01;;;;;;;9.07;6.17;;;21.80;99.90;;;;;;5091643;28;20190;-83
2023/06/14 09:20:30;;;;;;;9.00;5.80;;;21.90;99.90;;;;;;5092207;28;20278;-83
2023/06/14 09:22:58;;;;;;;8.10;5.70;;;21.80;99.90;;;;;;5075846;28;20194;-83
2023/06/14 09:25:27;;;;;;;7.40;5.60;;;21.70;99.90;;;;;;5092736;28;20267;-83
2023/06/14 09:28:08;;;;;;;7.90;5.47;;;21.50;99.90;;;;;;5094254;28;20170;-83
2023/06/14 09:30:39;;;;;;;9.17;5.60;;;21.50;99.90;;;;;;5094157;28;20240;-82
2023/06/14 09:33:07;;;;;;;9.33;4.93;;;21.40;99.90;;;;;;5092495;28;20266;-82
2023/06/14 09:35:34;;;;;;;8.43;5.57;;;21.60;99.90;;;;;;5075078;28;20224;-84
2023/06/14 09:38:01;;;;;;;9.87;5.70;;;21.50;99.90;;;;;;5093055;28;20185;-83
2023/06/14 09:40:33;;;;;;;8.37;5.80;;;21.50;99.90;;;;;;5091728;28;20244;-83
2023/06/14 09:43:00;;;;;;;8.73;6.27;;;21.50;99.90;;;;;;5093501;28;20185;-83
2023/06/14 09:45:29;;;;;;;9.43;5.93;;;21.30;99.90;;;;;;5091470;28;20320;-82
2023/06/14 09:47:58;;;;;;;9.37;6.00;;;21.30;99.90;;;;;;5091610;28;20239;-82
2023/06/14 09:50:28;;;;;;;9.03;6.33;;;21.50;99.90;;;;;;5091595;28;20689;-82
2023/06/14 09:53:02;;;;;;;9.03;5.93;;;21.50;99.90;;;;;;5091429;28;20212;-82
2023/06/14 09:55:33;;;;;;;12.07;6.27;;;21.60;99.90;;;;;;5091487;28;20233;-84
2023/06/14 09:58:04;;;;;;;10.43;5.80;;;21.70;99.90;;;;;;5091399;28;20629;-83
2023/06/14 10:00:33;;;;;;;8.83;5.57;;;21.70;99.90;;;;;;5074921;28;20719;-82
2023/06/14 10:03:16;;;;;;;10.77;5.10;;;21.60;99.90;;;;;;5091894;28;20560;-83
2023/06/14 10:05:50;;;;;;;9.03;5.00;;;21.40;99.90;;;;;;5092730;28;20616;-82
2023/06/14 10:08:23;;;;;;;5.87;4.63;;;21.20;99.90;;;;;;5092850;28;20193;-83
2023/06/14 10:10:50;;;;;;;6.97;4.43;;;21.40;99.90;;;;;;5091157;28;20259;-84
2023/06/14 10:13:18;;;;;;;9.10;5.13;;;21.50;99.90;;;;;;5091129;28;20190;-82
2023/06/14 10:16:09;;;;;;;5.90;4.33;;;21.80;99.90;;;;;;5092241;28;20206;-84
2023/06/14 10:18:45;;;;;;;8.10;4.40;;;21.60;99.90;;;;;;5091410;28;20252;-83
2023/06/14 10:21:52;;;;;;;6.90;4.70;;;21.90;99.90;;;;;;5091494;28;20235;-84
2023/06/14 10:24:25;;;;;;;6.73;4.50;;;22.00;99.90;;;;;;5092363;28;20185;-83
2023/06/14 10:26:54;;;;;;;7.60;4.77;;;21.90;99.90;;;;;;5092665;28;20188;-83
2023/06/14 10:29:26;;;;;;;7.33;4.57;;;21.70;99.90;;;;;;5096456;28;20585;-82
2023/06/14 10:31:58;;;;;;;6.03;4.63;;;21.70;99.90;;;;;;5095542;28;20205;-83
2023/06/14 10:34:29;;;;;;;8.87;4.53;;;21.50;99.90;;;;;;5095323;28;20197;-83
2023/06/14 10:37:05;;;;;;;9.97;4.40;;;21.60;99.90;;;;;;5078218;28;20193;-84
2023/06/14 10:39:45;;;;;;;6.77;4.80;;;21.70;99.90;;;;;;5094987;28;20193;-84
2023/06/14 10:42:13;;;;;;;7.30;4.77;;;21.90;99.90;;;;;;5095214;28;20220;-82
2023/06/14 10:44:45;;;;;;;6.20;4.63;;;21.80;99.90;;;;;;5078318;28;20224;-84
2023/06/14 10:47:25;;;;;;;6.30;4.67;;;21.70;99.90;;;;;;5078863;28;20189;-84
2023/06/14 10:50:10;;;;;;;7.53;4.53;;;21.80;99.90;;;;;;5096511;28;20247;-84
2023/06/14 10:52:39;;;;;;;6.43;3.83;;;21.80;99.90;;;;;;5078059;28;20304;-83
2023/06/14 10:55:18;;;;;;;6.47;3.60;;;22.00;99.90;;;;;;5078456;28;20225;-84
2023/06/14 10:57:50;;;;;;;5.90;3.80;;;22.20;99.90;;;;;;5096105;28;20174;-84
2023/06/14 11:00:25;;;;;;;6.73;3.67;;;22.40;99.90;;;;;;5096231;28;20229;-84
2023/06/14 11:03:13;;;;;;;5.37;3.70;;;22.70;99.90;;;;;;5077799;28;20201;-83
2023/06/14 11:05:52;;;;;;;6.07;4.03;;;23.10;99.90;;;;;;5077766;28;20270;-84
2023/06/14 11:08:50;;;;;;;6.37;4.10;;;23.10;99.90;;;;;;5094404;28;20265;-84
2023/06/14 11:11:18;;;;;;;6.45;4.13;;;22.90;99.90;;;;;;5094715;28;20249;-84
2023/06/14 11:13:45;;;;;;;6.78;4.28;;;22.60;99.90;;;;;;5077643;28;20243;-85
2023/06/14 11:16:16;;;;;;;6.07;3.90;;;22.20;99.90;;;;;;5095829;28;20564;-83
2023/06/14 11:18:44;;;;;;;5.17;3.87;;;22.10;99.90;;;;;;5076648;28;20192;-84
2023/06/14 11:21:15;;;;;;;7.63;4.50;;;21.90;99.90;;;;;;5094809;28;20578;-83
2023/06/14 11:23:49;;;;;;;5.90;4.17;;;22.00;99.90;;;;;;5077334;28;20205;-83
2023/06/14 11:26:28;;;;;;;5.60;4.10;;;21.90;99.90;;;;;;5093870;28;20213;-83
2023/06/14 11:28:57;;;;;;;6.33;4.40;;;21.80;99.90;;;;;;5077091;28;20193;-84
2023/06/14 11:31:25;;;;;;;6.87;4.57;;;21.80;99.90;;;;;;5094001;28;20308;-84
2023/06/14 11:33:59;;;;;;;7.60;4.80;;;21.90;99.90;;;;;;5093590;28;20665;-83
2023/06/14 11:36:29;;;;;;;6.60;4.23;;;21.70;99.90;;;;;;5095283;28;20299;-82
2023/06/14 11:39:01;;;;;;;8.77;5.37;;;21.90;99.90;;;;;;5076672;28;20197;-82
2023/06/14 11:41:43;;;;;;;8.77;5.17;;;22.10;99.90;;;;;;5093638;28;20245;-83
2023/06/14 11:44:10;;;;;;;6.83;5.27;;;22.30;99.90;;;;;;5077362;28;20204;-82
2023/06/14 11:46:38;;;;;;;8.30;4.80;;;22.40;99.90;;;;;;5094470;28;20737;-83
2023/06/14 11:49:06;;;;;;;5.50;4.53;;;22.20;99.90;;;;;;5076999;28;20197;-83
2023/06/14 11:51:35;;;;;;;7.10;4.40;;;22.40;99.90;;;;;;5093616;28;20225;-83
2023/06/14 11:54:03;;;;;;;8.73;4.93;;;22.70;99.90;;;;;;5094424;28;20197;-82
2023/06/14 11:56:31;;;;;;;6.47;4.50;;;23.30;99.90;;;;;;5093955;28;20221;-82
2023/06/14 11:58:59;;;;;;;6.23;4.50;;;23.80;99.90;;;;;;5093878;28;20289;-84
2023/06/14 12:01:26;;;;;;;7.55;4.32;;;24.00;99.90;;;;;;5093919;28;20205;-84
2023/06/14 12:03:54;;;;;;;8.30;4.05;;;24.30;99.90;;;;;;5095180;28;20181;-84
2023/06/14 12:06:32;;;;;;;5.22;3.75;;;24.40;99.90;;;;;;5077084;28;20411;-83
2023/06/14 12:09:03;;;;;;;8.52;3.60;;;24.60;99.90;;;;;;5093982;28;20178;-83
2023/06/14 12:11:35;;;;;;;5.13;3.50;;;24.60;99.90;;;;;;5039964;28;20222;-83
2023/06/14 12:14:04;;;;;;;4.32;3.25;;;24.70;99.90;;;;;;5040106;28;20308;-84
2023/06/14 12:16:33;;;;;;;8.35;3.10;;;24.80;99.90;;;;;;5056762;28;20305;-83
2023/06/14 12:19:08;;;;;;;4.22;2.90;;;24.90;99.90;;;;;;5060412;28;20190;-83
2023/06/14 12:21:38;;;;;;;6.07;3.10;;;25.20;99.90;;;;;;5080536;28;20213;-82
2023/06/14 12:24:06;;;;;;;4.50;3.03;;;25.00;99.90;;;;;;5062301;28;20202;-83
2023/06/14 12:26:37;;;;;;;4.82;2.72;;;24.50;99.90;;;;;;5062717;28;20214;-84
2023/06/14 12:29:06;;;;;;;4.20;2.63;;;24.00;99.90;;;;;;5062355;28;20190;-84
2023/06/14 12:31:33;;;;;;;3.70;2.50;;;23.60;99.90;;;;;;5061904;28;20318;-85
2023/06/14 12:34:00;;;;;;;4.15;2.30;;;23.60;99.90;;;;;;5046006;28;20233;-85
2023/06/14 12:36:27;;;;;;;5.80;2.35;;;23.90;99.90;;;;;;5060624;28;20256;-83
2023/06/14 12:38:54;;;;;;;6.28;2.60;;;24.30;99.90;;;;;;5039769;28;20202;-84
2023/06/14 12:41:22;;;;;;;7.00;2.30;;;24.60;99.90;;;;;;5038881;28;20214;-83
2023/06/14 12:43:49;;;;;;;3.95;2.08;;;25.10;99.90;;;;;;5073823;28;20186;-85
2023/06/14 12:46:17;;;;;;;3.22;2.30;;;25.70;99.50;;;;;;5055669;28;20278;-84
2023/06/14 12:48:45;;;;;;;4.70;2.20;;;25.80;98.90;;;;;;5039041;28;20230;-82
2023/06/14 12:51:11;;;;;;;3.70;2.17;;;25.70;98.30;;;;;;5073290;28;20309;-83
2023/06/14 12:53:39;;;;;;;5.47;2.30;;;25.20;98.10;;;;;;5055112;28;20202;-83
2023/06/14 12:56:06;;;;;;;5.32;2.10;;;24.90;99.20;;;;;;5073176;28;20202;-83
2023/06/14 12:58:33;;;;;;;3.75;2.30;;;25.30;99.90;;;;;;5055012;28;20607;-82
2023/06/14 13:01:00;;;;;;;4.53;2.10;;;25.50;99.90;;;;;;5055270;28;20237;-84
2023/06/14 13:03:30;;;;;;;4.32;2.30;;;25.60;98.80;;;;;;5073075;28;20630;-83
2023/06/14 13:05:57;;;;;;;3.85;2.10;;;25.90;96.40;;;;;;5055286;28;20244;-83
2023/06/14 13:08:24;;;;;;;4.50;2.33;;;26.00;95.10;;;;;;5054787;28;20649;-83
2023/06/14 13:10:51;;;;;;;3.28;1.92;;;25.60;96.00;;;;;;5084267;28;20233;-84
2023/06/14 13:13:18;;;;;;;3.58;2.50;;;25.50;96.00;;;;;;5075177;28;20295;-83
2023/06/14 13:15:46;;;;;;;5.13;2.00;;;25.40;96.60;;;;;;5092847;28;20201;-83
2023/06/14 13:18:13;;;;;;;3.72;2.25;;;25.40;96.30;;;;;;5058445;28;20675;-83
2023/06/14 13:20:40;;;;;;;3.97;2.30;;;25.10;95.80;;;;;;5091706;28;20209;-83
2023/06/14 13:23:08;;;;;;;4.38;2.30;;;25.40;95.50;;;;;;5092113;28;20276;-84
2023/06/14 13:25:37;;;;;;;3.55;2.00;;;25.70;94.70;;;;;;5093073;28;20205;-83
2023/06/14 13:28:04;;;;;;;3.10;1.98;;;25.70;93.70;;;;;;5091504;28;20557;-83
2023/06/14 13:30:32;;;;;;;3.13;2.10;;;26.30;93.30;;;;;;5074760;28;20317;-86
2023/06/14 13:33:00;;;;;;;4.07;2.10;;;26.90;92.60;;;;;;5091737;28;20697;-85
2023/06/14 13:35:27;;;;;;;3.10;2.08;;;27.10;92.70;;;;;;5091374;28;20217;-82
2023/06/14 13:37:54;;;;;;;3.22;1.80;;;27.30;91.50;;;;;;5091432;28;20242;-83
2023/06/14 13:40:21;;;;;;;3.42;2.42;;;27.20;90.90;;;;;;5091141;28;20263;-82
2023/06/14 13:42:48;;;;;;;4.57;2.10;;;27.30;91.30;;;;;;5091368;28;20292;-83
2023/06/14 13:45:15;;;;;;;5.28;2.50;;;26.80;90.80;;;;;;5092963;28;20270;-82
2023/06/14 13:47:43;;;;;;;5.97;2.50;;;26.10;91.10;;;;;;5091422;28;20730;-84
2023/06/14 13:50:10;;;;;;;3.95;2.20;;;25.70;92.30;;;;;;5091557;28;20209;-83
2023/06/14 13:52:37;;;;;;;4.80;2.30;;;25.50;92.70;;;;;;5092923;28;20551;-83
2023/06/14 13:55:05;;;;;;;4.78;2.33;;;25.40;93.10;;;;;;5074996;28;20210;-83
2023/06/14 13:57:32;;;;;;;3.00;2.00;;;25.40;92.90;;;;;;5074621;28;20197;-84
2023/06/14 14:00:01;;;;;;;4.53;2.20;;;25.00;93.50;;;;;;5074506;28;20217;-84
2023/06/14 14:02:29;;;;;;;3.45;2.30;;;25.20;94.00;;;;;;5090735;28;20190;-83
2023/06/14 14:04:57;;;;;;;3.53;2.33;;;25.30;94.80;;;;;;5091163;28;20259;-84
2023/06/14 14:07:24;;;;;;;5.15;2.30;;;24.80;93.10;;;;;;5090982;28;20314;-83
2023/06/14 14:09:51;;;;;;;3.50;2.28;;;24.90;93.80;;;;;;5090662;28;20229;-84
2023/06/14 14:12:18;;;;;;;3.70;2.40;;;24.60;94.00;;;;;;5091095;28;20268;-84
2023/06/14 14:14:46;;;;;;;3.17;2.30;;;24.80;94.00;;;;;;5074267;28;20220;-84
2023/06/14 14:17:13;;;;;;;5.18;2.40;;;24.40;94.80;;;;;;5091186;28;20211;-84
2023/06/14 14:19:40;;;;;;;3.88;2.40;;;24.30;95.10;;;;;;5090716;28;20611;-84
2023/06/14 14:22:07;;;;;;;6.25;2.50;;;24.50;96.00;;;;;;5074316;28;20199;-84
2023/06/14 14:24:34;;;;;;;4.70;2.28;;;24.20;96.00;;;;;;5091398;28;20197;-84
2023/06/14 14:27:02;;;;;;;4.07;2.40;;;24.10;95.80;;;;;;5092800;28;20250;-84
2023/06/14 14:29:32;;;;;;;4.15;2.38;;;24.00;95.50;;;;;;5092539;28;20731;-84
2023/06/14 14:31:59;;;;;;;3.90;2.60;;;23.80;95.00;;;;;;5090761;28;20621;-83
2023/06/14 14:34:27;;;;;;;5.80;2.40;;;23.60;95.90;;;;;;5090666;28;20204;-83
2023/06/14 14:36:54;;;;;;;4.20;2.20;;;23.80;95.50;;;;;;5092263;28;20220;-85
2023/06/14 14:39:21;;;;;;;3.63;2.40;;;23.80;95.80;;;;;;5090659;28;20288;-83
2023/06/14 14:41:49;;;;;;;4.00;2.25;;;23.70;95.80;;;;;;5090874;28;20263;-85
2023/06/14 14:44:17;;;;;;;5.03;2.50;;;23.80;95.60;;;;;;5090672;28;20225;-84
2023/06/14 14:46:44;;;;;;;3.85;2.45;;;24.10;96.30;;;;;;5091722;28;20644;-84
2023/06/14 14:49:11;;;;;;;7.35;2.67;;;24.20;95.80;;;;;;5091083;28;20326;-82
2023/06/14 14:51:39;;;;;;;3.38;2.50;;;24.10;95.90;;;;;;5073326;28;20217;-84
2023/06/14 14:54:06;;;;;;;4.95;2.53;;;23.80;96.20;;;;;;5092078;28;20201;-83
2023/06/14 14:56:35;;;;;;;3.28;2.20;;;23.60;97.00;;;;;;5090900;28;20225;-82
2023/06/14 14:59:02;;;;;;;5.95;2.40;;;23.60;96.40;;;;;;5090552;28;20727;-83
2023/06/14 15:01:29;;;;;;;4.75;2.50;;;24.00;95.10;;;;;;5073719;28;20341;-82
2023/06/14 15:03:57;;;;;;;5.53;2.50;;;24.30;95.20;;;;;;5090757;28;20189;-83
2023/06/14 15:06:26;;;;;;;3.28;2.40;;;24.30;94.20;;;;;;5092002;28;20212;-83
2023/06/14 15:08:53;;;;;;;3.77;2.57;;;24.00;94.80;;;;;;5073488;28;20204;-81
2023/06/14 15:11:20;;;;;;;3.65;2.50;;;24.40;94.50;;;;;;5054062;28;20249;-83
2023/06/14 15:13:50;;;;;;;2.67;2.10;;;25.20;93.90;;;;;;5038993;28;20309;-82
2023/06/14 15:16:17;;;;;;;4.78;2.30;;;25.70;92.20;;;;;;5076600;28;20202;-82
2023/06/14 15:18:45;;;;;;;3.70;2.10;;;26.00;91.30;;;;;;5059066;28;20194;-85
2023/06/14 15:21:12;;;;;;;4.47;2.40;;;26.70;90.60;;;;;;5043008;28;20218;-84
2023/06/14 15:23:40;;;;;;;5.63;2.30;;;27.70;88.60;;;;;;5060987;28;20193;-86
2023/06/14 15:26:06;;;;;;;2.60;2.10;;;27.80;87.00;;;;;;5078063;28;20207;-84
2023/06/14 15:28:33;;;;;;;2.47;1.95;;;28.40;86.30;;;;;;5077925;28;20190;-85
2023/06/14 15:31:01;;;;;;;4.05;2.10;;;28.60;83.50;;;;;;5077965;28;20214;-87
2023/06/14 15:33:28;;;;;;;4.00;2.00;;;28.10;82.50;;;;;;5042861;28;20222;-86
2023/06/14 15:35:55;;;;;;;3.33;1.98;;;27.50;84.20;;;;;;5077955;28;20637;-86
2023/06/14 15:38:22;;;;;;;4.40;2.30;;;26.80;86.30;;;;;;5043725;28;20297;-87
2023/06/14 15:40:49;;;;;;;7.22;2.60;;;26.30;88.20;;;;;;5058473;28;20681;-85
2023/06/14 15:43:18;;;;;;;5.40;2.42;;;26.20;87.90;;;;;;5043641;28;20281;-87
2023/06/14 15:45:45;;;;;;;5.38;2.45;;;26.20;88.50;;;;;;5074908;28;20221;-83
2023/06/14 15:48:12;;;;;;;5.15;2.65;;;26.10;87.90;;;;;;5040042;28;20215;-83
2023/06/14 15:50:39;;;;;;;4.90;2.45;;;25.70;89.00;;;;;;5056759;28;20720;-83
2023/06/14 15:53:06;;;;;;;4.70;3.08;;;25.30;90.20;;;;;;5074654;28;20227;-84
2023/06/14 15:55:33;;;;;;;4.97;3.25;;;24.80;91.20;;;;;;5056855;28;20217;-85
2023/06/14 15:58:00;;;;;;;4.40;3.30;;;24.10;92.50;;;;;;5056667;28;20713;-81
2023/06/14 16:00:27;;;;;;;6.40;3.20;;;23.60;93.20;;;;;;5039903;28;20272;-80
2023/06/14 16:02:54;;;;;;;6.68;3.40;;;23.40;93.80;;;;;;5074654;28;20198;-80